createdAt,value
2022-11-26T00:01:50.334Z,100826.56
2022-11-26T00:04:18.959Z,100830.13
2022-11-26T00:06:47.568Z,100827.31
2022-11-26T00:09:20.532Z,100834.59
2022-11-26T00:11:49.195Z,100828.31
2022-11-26T00:14:18.656Z,100833.84
2022-11-26T00:16:48.417Z,100834.03
2022-11-26T00:19:17.053Z,100837.78
2022-11-26T00:21:45.829Z,100835.72
2022-11-26T00:24:26.353Z,100842.66
2022-11-26T00:26:58.363Z,100832.91
2022-11-26T00:29:27.445Z,100834.31
2022-11-26T00:31:57.186Z,100844.81
2022-11-26T00:34:25.711Z,100844.78
2022-11-26T00:36:54.428Z,100841.41
2022-11-26T00:39:25.013Z,100844.19
2022-11-26T00:41:53.985Z,100843.31
2022-11-26T00:44:24.359Z,100839.06
2022-11-26T00:46:53.055Z,100842.19
2022-11-26T00:49:24.195Z,100844.81
2022-11-26T00:51:52.918Z,100845.38
2022-11-26T00:54:21.625Z,100849.84
2022-11-26T00:56:50.681Z,100851.13
2022-11-26T00:59:21.746Z,100845.56
2022-11-26T01:01:50.773Z,100844.94
2022-11-26T01:04:19.500Z,100842.25
2022-11-26T01:06:49.734Z,100850.06
2022-11-26T01:09:20.128Z,100853.31
2022-11-26T01:11:53.815Z,100840.97
2022-11-26T01:14:23.800Z,100848.28
2022-11-26T01:16:52.444Z,100846.56
2022-11-26T01:19:21.104Z,100850.16
2022-11-26T01:21:51.083Z,100850.03
2022-11-26T01:24:19.761Z,100851.91
2022-11-26T01:26:48.386Z,100856.38
2022-11-26T01:29:18.043Z,100845.91
2022-11-26T01:31:46.767Z,100850.97
2022-11-26T01:34:15.594Z,100850.56
2022-11-26T01:36:44.629Z,100848.56
2022-11-26T01:39:18.012Z,100856.13
2022-11-26T01:41:52.894Z,100858.59
2022-11-26T01:44:24.283Z,100861.13
2022-11-26T01:46:53.370Z,100861.00
2022-11-26T01:49:25.022Z,100864.03
2022-11-26T01:51:59.574Z,100860.59
2022-11-26T01:54:29.800Z,100869.53
2022-11-26T01:56:58.149Z,100864.38
2022-11-26T01:59:30.282Z,100866.97
2022-11-26T02:02:00.314Z,100862.53
2022-11-26T02:04:29.228Z,100859.63
2022-11-26T02:06:58.177Z,100861.38
2022-11-26T02:09:29.295Z,100855.16
2022-11-26T02:11:58.592Z,100863.91
2022-11-26T02:14:29.594Z,100865.09
2022-11-26T02:17:11.393Z,100872.25
2022-11-26T02:20:26.922Z,100869.28
2022-11-26T02:23:22.280Z,100871.09
2022-11-26T02:26:24.194Z,100871.53
2022-11-26T02:29:12.181Z,100871.44
2022-11-26T02:31:46.702Z,100878.66
2022-11-26T02:34:20.930Z,100875.97
2022-11-26T02:36:51.984Z,100878.47
2022-11-26T02:39:23.465Z,100875.81
2022-11-26T02:41:53.526Z,100884.84
2022-11-26T02:44:24.305Z,100875.41
2022-11-26T02:46:54.666Z,100882.38
2022-11-26T02:49:24.231Z,100876.03
2022-11-26T02:51:56.171Z,100877.53
2022-11-26T02:54:25.911Z,100871.53
2022-11-26T02:56:55.015Z,100871.25
2022-11-26T02:59:24.084Z,100876.56
2022-11-26T03:01:58.504Z,100873.91
2022-11-26T03:04:29.238Z,100875.09
2022-11-26T03:06:59.788Z,100869.03
2022-11-26T03:09:28.470Z,100867.47
2022-11-26T03:11:57.138Z,100878.97
2022-11-26T03:14:25.845Z,100876.78
2022-11-26T03:16:55.636Z,100879.50
2022-11-26T03:19:24.237Z,100881.66
2022-11-26T03:21:52.827Z,100879.38
2022-11-26T03:24:21.436Z,100876.88
2022-11-26T03:26:50.085Z,100880.66
2022-11-26T03:29:18.685Z,100893.66
2022-11-26T03:31:47.018Z,100883.84
2022-11-26T03:34:17.310Z,100884.53
2022-11-26T03:36:45.917Z,100886.16
2022-11-26T03:39:14.821Z,100883.78
2022-11-26T03:41:44.362Z,100888.41
2022-11-26T03:44:13.380Z,100897.34
2022-11-26T03:46:41.879Z,100897.16
2022-11-26T03:49:10.593Z,100904.50
2022-11-26T03:51:40.579Z,100905.38
2022-11-26T03:54:09.489Z,100900.78
2022-11-26T03:56:38.086Z,100900.50
2022-11-26T03:59:06.794Z,100904.66
2022-11-26T04:01:35.417Z,100905.50
2022-11-26T04:04:04.288Z,100898.72
2022-11-26T04:06:33.084Z,100902.56
2022-11-26T04:09:03.080Z,100910.50
2022-11-26T04:11:31.811Z,100906.31
2022-11-26T04:14:00.457Z,100909.44
2022-11-26T04:16:28.775Z,100910.38
2022-11-26T04:18:57.483Z,100917.03
2022-11-26T04:21:26.131Z,100922.09
2022-11-26T04:23:54.785Z,100917.31
2022-11-26T04:26:24.929Z,100917.59
2022-11-26T04:28:53.303Z,100926.69
2022-11-26T04:31:22.106Z,100920.59
2022-11-26T04:33:50.843Z,100929.88
2022-11-26T04:36:19.503Z,100926.69
2022-11-26T04:38:48.181Z,100935.22
2022-11-26T04:41:16.872Z,100930.59
2022-11-26T04:43:46.705Z,100934.53
2022-11-26T04:46:15.502Z,100935.50
2022-11-26T04:48:44.258Z,100941.66
2022-11-26T04:51:12.947Z,100937.97
2022-11-26T04:53:41.650Z,100948.81
2022-11-26T04:56:10.448Z,100948.50
2022-11-26T04:58:38.827Z,100951.53
2022-11-26T05:01:09.292Z,100944.19
2022-11-26T05:03:38.070Z,100944.38
2022-11-26T05:06:07.369Z,100949.28
2022-11-26T05:08:36.060Z,100939.28
2022-11-26T05:11:04.744Z,100949.28
2022-11-26T05:13:33.094Z,100951.97
2022-11-26T05:16:01.788Z,100956.34
2022-11-26T05:18:31.823Z,100957.94
2022-11-26T05:21:00.607Z,100963.31
2022-11-26T05:23:29.177Z,100953.94
2022-11-26T05:25:57.779Z,100961.44
2022-11-26T05:28:26.187Z,100963.06
2022-11-26T05:30:59.466Z,100962.69
2022-11-26T05:33:28.844Z,100965.47
2022-11-26T05:35:58.860Z,100966.69
2022-11-26T05:38:28.539Z,100971.75
2022-11-26T05:40:56.950Z,100970.38
2022-11-26T05:43:25.629Z,100977.56
2022-11-26T05:45:54.291Z,100980.31
2022-11-26T05:48:22.926Z,100984.03
2022-11-26T05:50:59.576Z,100991.75
2022-11-26T05:53:28.827Z,100991.75
2022-11-26T05:55:57.160Z,100992.47
2022-11-26T05:58:26.040Z,100998.66
2022-11-26T06:00:55.151Z,100998.31
2022-11-26T06:03:23.927Z,101004.81
2022-11-26T06:05:52.623Z,101009.59
2022-11-26T06:08:22.680Z,101006.28
2022-11-26T06:10:51.012Z,101008.03
2022-11-26T06:13:19.644Z,101013.03
2022-11-26T06:15:48.284Z,101016.13
2022-11-26T06:18:17.418Z,101023.44
2022-11-26T06:20:46.407Z,101027.91
2022-11-26T06:23:15.185Z,101026.59
2022-11-26T06:25:44.893Z,101030.94
2022-11-26T06:28:13.649Z,101031.50
2022-11-26T06:30:42.311Z,101035.72
2022-11-26T06:33:11.080Z,101040.97
2022-11-26T06:35:39.723Z,101036.25
2022-11-26T06:38:09.138Z,101042.66
2022-11-26T06:40:37.482Z,101036.03
2022-11-26T06:43:07.550Z,101032.22
2022-11-26T06:45:36.399Z,101035.56
2022-11-26T06:48:05.375Z,101039.25
2022-11-26T06:50:34.077Z,101038.78
2022-11-26T06:53:02.701Z,101040.47
2022-11-26T06:55:32.394Z,101047.06
2022-11-26T06:58:01.096Z,101055.41
2022-11-26T07:00:31.189Z,101051.84
2022-11-26T07:02:59.935Z,101054.84
2022-11-26T07:05:28.882Z,101057.97
2022-11-26T07:07:57.827Z,101064.31
2022-11-26T07:10:26.271Z,101066.31
2022-11-26T07:12:54.998Z,101072.75
2022-11-26T07:15:23.620Z,101072.31
2022-11-26T07:17:53.676Z,101064.69
2022-11-26T07:20:22.693Z,101065.25
2022-11-26T07:22:51.034Z,101067.88
2022-11-26T07:25:19.713Z,101072.38
2022-11-26T07:27:48.347Z,101073.97
2022-11-26T07:30:17.595Z,101080.66
2022-11-26T07:32:46.242Z,101091.69
2022-11-26T07:35:19.607Z,101099.25
2022-11-26T07:37:47.977Z,101095.81
2022-11-26T07:40:16.665Z,101106.69
2022-11-26T07:42:48.143Z,101112.97
2022-11-26T07:45:22.489Z,101114.50
2022-11-26T07:47:51.158Z,101122.16
2022-11-26T07:50:21.293Z,101125.38
2022-11-26T07:52:49.562Z,101127.06
2022-11-26T07:55:18.385Z,101120.53
2022-11-26T07:57:47.081Z,101124.09
2022-11-26T08:00:16.939Z,101128.28
2022-11-26T08:02:45.700Z,101128.38
2022-11-26T08:05:14.429Z,101134.06
2022-11-26T08:07:44.208Z,101137.34
2022-11-26T08:10:13.383Z,101135.09
2022-11-26T08:12:42.286Z,101131.94
2022-11-26T08:15:12.221Z,101136.34
2022-11-26T08:17:40.970Z,101143.59
2022-11-26T08:20:10.492Z,101134.66
2022-11-26T08:22:38.938Z,101129.34
2022-11-26T08:25:10.676Z,101138.44
2022-11-26T08:27:39.545Z,101142.09
2022-11-26T08:30:09.385Z,101138.25
2022-11-26T08:32:38.266Z,101141.63
2022-11-26T08:35:07.379Z,101142.66
2022-11-26T08:37:35.649Z,101138.91
2022-11-26T08:40:04.673Z,101148.00
2022-11-26T08:42:34.745Z,101146.53
2022-11-26T08:45:03.454Z,101146.91
2022-11-26T08:47:32.082Z,101152.63
2022-11-26T08:50:00.718Z,101160.38
2022-11-26T08:52:29.016Z,101164.06
2022-11-26T08:54:57.641Z,101163.41
2022-11-26T08:57:26.190Z,101167.53
2022-11-26T08:59:56.206Z,101163.03
2022-11-26T09:02:24.941Z,101162.28
2022-11-26T09:04:53.248Z,101171.03
2022-11-26T09:07:21.933Z,101166.88
2022-11-26T09:09:50.630Z,101167.63
2022-11-26T09:12:19.334Z,101169.31
2022-11-26T09:14:48.019Z,101167.34
2022-11-26T09:17:18.140Z,101174.44
2022-11-26T09:19:46.404Z,101172.00
2022-11-26T09:22:15.073Z,101173.50
2022-11-26T09:24:44.013Z,101169.56
2022-11-26T09:27:12.720Z,101171.06
2022-11-26T09:29:42.260Z,101178.78
2022-11-26T09:32:32.489Z,101179.56
2022-11-26T09:35:00.600Z,101180.94
2022-11-26T09:37:29.259Z,101188.28
2022-11-26T09:39:57.901Z,101180.84
2022-11-26T09:42:34.631Z,101176.38
2022-11-26T09:45:13.244Z,101179.19
2022-11-26T09:47:43.936Z,101178.13
2022-11-26T09:50:26.654Z,101176.44
2022-11-26T09:52:58.662Z,101178.97
2022-11-26T09:55:31.141Z,101176.84
2022-11-26T09:58:07.719Z,101183.31
2022-11-26T10:00:40.967Z,101180.56
2022-11-26T10:03:15.542Z,101176.53
2022-11-26T10:05:51.356Z,101185.53
2022-11-26T10:08:42.543Z,101183.03
2022-11-26T10:11:17.335Z,101192.13
2022-11-26T10:13:48.788Z,101196.13
2022-11-26T10:16:26.644Z,101192.75
2022-11-26T10:19:02.044Z,101200.31
2022-11-26T10:21:57.634Z,101194.94
2022-11-26T10:24:29.149Z,101198.25
2022-11-26T10:27:01.114Z,101196.25
2022-11-26T10:29:35.810Z,101197.34
2022-11-26T10:32:13.842Z,101207.69
2022-11-26T10:34:46.344Z,101207.94
2022-11-26T10:37:17.145Z,101207.63
2022-11-26T10:39:45.828Z,101200.59
2022-11-26T10:42:18.243Z,101207.44
2022-11-26T10:44:48.035Z,101205.06
2022-11-26T10:47:22.649Z,101202.34
2022-11-26T10:49:51.427Z,101203.94
2022-11-26T10:52:24.455Z,101200.28
2022-11-26T10:55:09.177Z,101204.88
2022-11-26T10:57:38.772Z,101208.44
2022-11-26T11:00:15.069Z,101200.28
2022-11-26T11:02:44.786Z,101211.00
2022-11-26T11:05:13.642Z,101206.56
2022-11-26T11:07:44.253Z,101212.56
2022-11-26T11:10:17.132Z,101216.34
2022-11-26T11:12:50.066Z,101215.03
2022-11-26T11:15:25.065Z,101220.47
2022-11-26T11:17:59.374Z,101219.06
2022-11-26T11:20:33.672Z,101220.47
2022-11-26T11:23:17.841Z,101222.22
2022-11-26T11:25:49.368Z,101229.66
2022-11-26T11:28:20.640Z,101228.44
2022-11-26T11:30:59.619Z,101230.03
2022-11-26T11:33:29.304Z,101230.50
2022-11-26T11:36:03.431Z,101230.03
2022-11-26T11:38:35.545Z,101233.31
2022-11-26T11:41:05.655Z,101242.38
2022-11-26T11:43:37.832Z,101244.50
2022-11-26T11:46:19.203Z,101243.38
2022-11-26T11:48:56.449Z,101239.75
2022-11-26T11:51:32.881Z,101241.47
2022-11-26T11:54:12.962Z,101240.84
2022-11-26T11:56:43.191Z,101243.50
2022-11-26T11:59:47.917Z,101249.97
2022-11-26T12:02:37.940Z,101252.41
2022-11-26T12:05:08.083Z,101250.88
2022-11-26T12:07:39.850Z,101245.94
2022-11-26T12:10:16.144Z,101246.19
2022-11-26T12:12:47.819Z,101243.50
2022-11-26T12:15:24.680Z,101249.59
2022-11-26T12:17:58.265Z,101247.53
2022-11-26T12:20:30.040Z,101264.59
2022-11-26T12:23:09.080Z,101255.69
2022-11-26T12:25:43.387Z,101256.41
2022-11-26T12:28:15.201Z,101249.28
2022-11-26T12:30:48.074Z,101260.00
2022-11-26T12:33:20.756Z,101251.91
2022-11-26T12:35:53.989Z,101257.31
2022-11-26T12:38:26.095Z,101255.69
2022-11-26T12:41:00.685Z,101269.78
2022-11-26T12:43:35.013Z,101261.25
2022-11-26T12:46:07.116Z,101269.00
2022-11-26T12:48:42.552Z,101271.09
2022-11-26T12:51:22.457Z,101268.19
2022-11-26T12:53:55.469Z,101265.53
2022-11-26T12:56:32.112Z,101268.63
2022-11-26T12:59:03.636Z,101268.34
2022-11-26T13:01:32.983Z,101275.94
2022-11-26T13:04:35.692Z,101273.38
2022-11-26T13:07:11.748Z,101274.13
2022-11-26T13:09:53.187Z,101272.72
2022-11-26T13:12:31.028Z,101276.41
2022-11-26T13:15:04.048Z,101280.81
2022-11-26T13:17:42.093Z,101283.72
2022-11-26T13:20:24.766Z,101289.53
2022-11-26T13:23:02.471Z,101288.88
2022-11-26T13:25:40.444Z,101296.72
2022-11-26T13:28:18.749Z,101288.66
2022-11-26T13:30:53.411Z,101295.31
2022-11-26T13:33:54.864Z,101295.03
2022-11-26T13:36:35.214Z,101299.03
2022-11-26T13:39:20.573Z,101303.25
2022-11-26T13:42:05.270Z,101304.47
2022-11-26T13:45:04.866Z,101307.50
2022-11-26T13:47:36.967Z,101302.69
2022-11-26T13:50:09.147Z,101306.47
2022-11-26T13:52:41.170Z,101304.25
2022-11-26T13:55:14.091Z,101306.38
2022-11-26T13:57:46.028Z,101323.13
2022-11-26T14:00:25.715Z,101320.59
2022-11-26T14:02:54.947Z,101328.78
2022-11-26T14:05:24.438Z,101330.88
2022-11-26T14:07:52.786Z,101331.81
2022-11-26T14:10:43.101Z,101333.81
2022-11-26T14:13:12.568Z,101338.34
2022-11-26T14:16:03.684Z,101337.28
2022-11-26T14:19:07.249Z,101338.47
2022-11-26T14:22:00.425Z,101335.75
2022-11-26T14:24:56.619Z,101340.25
2022-11-26T14:27:26.925Z,101335.44
2022-11-26T14:29:55.963Z,101336.13
2022-11-26T14:32:27.185Z,101345.63
2022-11-26T14:34:56.716Z,101344.59
2022-11-26T14:37:26.729Z,101345.19
2022-11-26T14:40:04.522Z,101350.44
2022-11-26T14:42:33.184Z,101350.94
2022-11-26T14:45:03.490Z,101349.94
2022-11-26T14:47:33.581Z,101361.97
2022-11-26T14:50:05.133Z,101351.69
2022-11-26T14:52:35.354Z,101354.25
2022-11-26T14:55:06.786Z,101361.38
2022-11-26T14:57:41.237Z,101360.50
2022-11-26T15:00:23.628Z,101359.56
2022-11-26T15:02:54.337Z,101362.03
2022-11-26T15:05:25.116Z,101358.75
2022-11-26T15:08:04.960Z,101362.53
2022-11-26T15:10:35.679Z,101361.72
2022-11-26T15:13:12.629Z,101365.91
2022-11-26T15:15:51.768Z,101357.22
2022-11-26T15:18:23.752Z,101364.38
2022-11-26T15:20:53.293Z,101371.50
2022-11-26T15:23:28.178Z,101374.47
2022-11-26T15:25:57.170Z,101366.41
2022-11-26T15:28:25.786Z,101370.94
2022-11-26T15:30:57.907Z,101378.44
2022-11-26T15:33:29.554Z,101368.47
2022-11-26T15:35:58.348Z,101378.19
2022-11-26T15:38:28.198Z,101374.06
2022-11-26T15:41:01.989Z,101378.47
2022-11-26T15:43:32.747Z,101381.34
2022-11-26T15:46:03.887Z,101380.00
2022-11-26T15:48:54.205Z,101384.13
2022-11-26T15:51:23.485Z,101388.44
2022-11-26T15:53:52.773Z,101382.59
2022-11-26T15:56:25.374Z,101391.00
2022-11-26T15:58:55.796Z,101394.88
2022-11-26T16:01:26.981Z,101389.97
2022-11-26T16:03:59.715Z,101395.88
2022-11-26T16:06:32.224Z,101390.78
2022-11-26T16:09:04.681Z,101398.75
2022-11-26T16:11:36.857Z,101401.50
2022-11-26T16:14:28.736Z,101408.78
2022-11-26T16:16:58.015Z,101391.69
2022-11-26T16:19:30.124Z,101393.63
2022-11-26T16:21:58.955Z,101395.97
2022-11-26T16:24:31.916Z,101399.34
2022-11-26T16:27:06.226Z,101397.84
2022-11-26T16:29:36.591Z,101399.53
2022-11-26T16:32:06.007Z,101402.22
2022-11-26T16:34:35.823Z,101401.91
2022-11-26T16:37:08.914Z,101398.44
2022-11-26T16:42:26.482Z,101410.66
2022-11-26T16:44:58.014Z,101410.47
2022-11-26T16:47:31.794Z,101416.41
2022-11-26T16:50:02.695Z,101414.63
2022-11-26T16:52:30.981Z,101431.50
2022-11-26T16:54:59.907Z,101421.53
2022-11-26T16:57:29.043Z,101424.81
2022-11-26T17:00:01.330Z,101421.47
2022-11-26T17:02:30.155Z,101427.34
2022-11-26T17:04:58.879Z,101429.38
2022-11-26T17:07:31.578Z,101432.59
2022-11-26T17:10:00.395Z,101429.88
2022-11-26T17:12:29.083Z,101426.16
2022-11-26T17:14:57.765Z,101429.13
2022-11-26T17:17:30.082Z,101437.69
2022-11-26T17:19:58.436Z,101434.66
2022-11-26T17:22:28.698Z,101434.94
2022-11-26T17:24:57.099Z,101441.09
2022-11-26T17:27:26.743Z,101449.47
2022-11-26T17:29:55.882Z,101452.47
2022-11-26T17:32:24.754Z,101449.56
2022-11-26T17:34:53.181Z,101455.28
2022-11-26T17:37:25.988Z,101461.91
2022-11-26T17:39:56.901Z,101461.84
2022-11-26T17:42:25.836Z,101458.63
2022-11-26T17:44:55.851Z,101462.53
2022-11-26T17:47:26.253Z,101465.41
2022-11-26T17:49:55.340Z,101464.50
2022-11-26T17:52:24.165Z,101460.47
2022-11-26T17:54:52.948Z,101461.19
2022-11-26T17:57:24.611Z,101460.00
2022-11-26T17:59:53.429Z,101460.94
2022-11-26T18:02:22.217Z,101462.94
2022-11-26T18:04:50.686Z,101464.66
2022-11-26T18:07:20.517Z,101469.16
2022-11-26T18:09:49.428Z,101465.56
2022-11-26T18:12:24.840Z,101462.66
2022-11-26T18:14:56.347Z,101464.97
2022-11-26T18:17:25.674Z,101467.22
2022-11-26T18:19:54.094Z,101465.28
2022-11-26T18:22:24.905Z,101462.97
2022-11-26T18:24:56.869Z,101470.22
2022-11-26T18:27:27.794Z,101473.06
2022-11-26T18:29:57.918Z,101477.25
2022-11-26T18:32:26.551Z,101478.91
2022-11-26T18:34:54.842Z,101479.00
2022-11-26T18:37:23.520Z,101485.22
2022-11-26T18:39:52.126Z,101485.69
2022-11-26T18:42:37.618Z,101486.81
2022-11-26T18:45:10.773Z,101486.78
2022-11-26T18:47:39.463Z,101491.16
2022-11-26T18:50:09.230Z,101489.31
2022-11-26T18:52:37.580Z,101499.28
2022-11-26T18:55:08.416Z,101495.75
2022-11-26T18:57:37.385Z,101497.69
2022-11-26T19:00:11.136Z,101488.69
2022-11-26T19:02:40.002Z,101489.09
2022-11-26T19:05:09.375Z,101484.72
2022-11-26T19:07:38.361Z,101487.25
2022-11-26T19:10:08.262Z,101495.31
2022-11-26T19:12:36.900Z,101494.91
2022-11-26T19:15:06.296Z,101498.13
2022-11-26T19:17:36.408Z,101494.78
2022-11-26T19:20:05.755Z,101498.88
2022-11-26T19:22:34.375Z,101506.50
2022-11-26T19:25:03.151Z,101504.97
2022-11-26T19:27:31.791Z,101514.88
2022-11-26T19:30:00.403Z,101519.69
2022-11-26T19:32:29.111Z,101514.63
2022-11-26T19:35:05.424Z,101513.44
2022-11-26T19:37:34.410Z,101523.66
2022-11-26T19:40:03.249Z,101524.66
2022-11-26T19:42:33.132Z,101529.59
2022-11-26T19:45:01.978Z,101531.66
2022-11-26T19:47:30.652Z,101518.53
2022-11-26T19:50:00.910Z,101519.72
2022-11-26T19:52:29.507Z,101522.22
2022-11-26T19:54:58.926Z,101529.16
2022-11-26T19:57:27.845Z,101523.66
2022-11-26T19:59:56.481Z,101525.50
2022-11-26T20:02:25.089Z,101527.47
2022-11-26T20:04:53.418Z,101529.31
2022-11-26T20:07:23.557Z,101529.16
2022-11-26T20:09:52.220Z,101530.56
2022-11-26T20:12:21.102Z,101534.25
2022-11-26T20:14:49.779Z,101531.56
2022-11-26T20:17:18.573Z,101538.81
2022-11-26T20:19:47.233Z,101546.41
2022-11-26T20:22:15.919Z,101539.50
2022-11-26T20:24:45.991Z,101546.72
2022-11-26T20:27:14.707Z,101549.91
2022-11-26T20:29:43.315Z,101551.31
2022-11-26T20:32:13.982Z,101547.66
2022-11-26T20:34:42.225Z,101554.22
2022-11-26T20:37:10.831Z,101551.13
2022-11-26T20:39:40.048Z,101545.97
2022-11-26T20:42:11.903Z,101550.47
2022-11-26T20:44:40.543Z,101543.31
2022-11-26T20:47:09.217Z,101545.88
2022-11-26T20:49:42.897Z,101543.19
2022-11-26T20:52:11.753Z,101541.91
2022-11-26T20:54:41.216Z,101544.63
2022-11-26T20:57:11.345Z,101547.47
2022-11-26T20:59:40.251Z,101542.00
2022-11-26T21:02:10.821Z,101542.69
2022-11-26T21:04:39.303Z,101544.19
2022-11-26T21:07:08.019Z,101537.25
2022-11-26T21:09:36.751Z,101543.97
2022-11-26T21:12:05.820Z,101540.66
2022-11-26T21:14:35.830Z,101542.41
2022-11-26T21:17:04.653Z,101538.19
2022-11-26T21:19:33.052Z,101540.56
2022-11-26T21:22:01.717Z,101546.44
2022-11-26T21:24:30.324Z,101542.13
2022-11-26T21:26:58.959Z,101542.91
2022-11-26T21:29:27.639Z,101541.50
2022-11-26T21:31:57.349Z,101547.16
2022-11-26T21:34:26.187Z,101553.09
2022-11-26T21:36:54.855Z,101554.94
2022-11-26T21:39:23.511Z,101555.34
2022-11-26T21:41:52.936Z,101560.22
2022-11-26T21:44:21.550Z,101560.19
2022-11-26T21:46:49.819Z,101559.50
2022-11-26T21:49:19.889Z,101559.72
2022-11-26T21:51:48.571Z,101560.66
2022-11-26T21:54:17.568Z,101568.09
2022-11-26T21:56:47.590Z,101569.41
2022-11-26T21:59:16.400Z,101565.16
2022-11-26T22:01:44.795Z,101568.81
2022-11-26T22:04:15.302Z,101569.25
2022-11-26T22:06:47.341Z,101574.25
2022-11-26T22:09:17.466Z,101571.06
2022-11-26T22:11:47.099Z,101573.50
2022-11-26T22:14:16.964Z,101580.50
2022-11-26T22:16:47.993Z,101583.53
2022-11-26T22:19:16.785Z,101581.06
2022-11-26T22:21:47.161Z,101583.47
2022-11-26T22:24:17.659Z,101583.38
2022-11-26T22:26:46.405Z,101583.53
2022-11-26T22:29:15.958Z,101590.31
2022-11-26T22:31:44.786Z,101583.41
2022-11-26T22:34:15.039Z,101595.31
2022-11-26T22:36:43.628Z,101591.50
2022-11-26T22:39:15.992Z,101596.50
2022-11-26T22:41:45.772Z,101597.16
2022-11-26T22:44:14.742Z,101593.59
2022-11-26T22:46:43.121Z,101596.44
2022-11-26T22:49:13.220Z,101594.25
2022-11-26T22:51:42.034Z,101600.53
2022-11-26T22:54:18.814Z,101603.72
2022-11-26T22:56:47.512Z,101597.84
2022-11-26T22:59:16.304Z,101606.84
2022-11-26T23:01:44.698Z,101596.84
2022-11-26T23:04:13.561Z,101594.50
2022-11-26T23:06:42.723Z,101594.59
2022-11-26T23:09:13.494Z,101593.34
2022-11-26T23:11:45.588Z,101591.72
2022-11-26T23:14:14.357Z,101593.84
2022-11-26T23:16:43.839Z,101588.22
2022-11-26T23:19:14.937Z,101599.41
2022-11-26T23:21:44.963Z,101591.63
2022-11-26T23:24:14.191Z,101590.06
2022-11-26T23:26:44.572Z,101590.34
2022-11-26T23:29:13.462Z,101592.03
2022-11-26T23:31:43.899Z,101585.53
2022-11-26T23:34:12.954Z,101589.22
2022-11-26T23:36:41.887Z,101584.81
2022-11-26T23:39:13.203Z,101585.22
2022-11-26T23:41:43.767Z,101585.88
2022-11-26T23:44:12.627Z,101585.09
2022-11-26T23:46:41.135Z,101584.69
2022-11-26T23:49:09.991Z,101584.19
2022-11-26T23:51:38.595Z,101581.56
2022-11-26T23:54:07.213Z,101584.81
2022-11-26T23:56:36.239Z,101579.81
2022-11-26T23:59:06.426Z,101583.13
